Time;durP1;ratioP1;P1;durP2;ratioP2;P2;SDS_P1;SDS_P2;PMS_P1;PMS_P2;Temp;Humidity;BMP_temperature;BMP_pressure;BME280_temperature;BME280_humidity;BME280_pressure;Samples;Min_cycle;Max_cycle;Signal;HPM_P1;HPM_P2
2023/04/26 00:01:41;;;;;;;9.63;3.85;;;;;;;;;;5027024;28;20033;-60
2023/04/26 00:04:07;;;;;;;11.68;4.25;;;;;;;;;;5025379;28;20056;-60
2023/04/26 00:06:33;;;;;;;12.32;4.15;;;;;;;;;;5012482;28;20037;-61
2023/04/26 00:08:59;;;;;;;9.98;3.97;;;;;;;;;;5026389;28;20033;-63
2023/04/26 00:11:24;;;;;;;11.85;4.40;;;;;;;;;;5030064;28;20125;-62
2023/04/26 00:13:50;;;;;;;12.98;4.88;;;;;;;;;;5014297;28;20033;-61
2023/04/26 00:16:17;;;;;;;12.38;4.43;;;;;;;;;;5022289;28;20062;-62
2023/04/26 00:18:43;;;;;;;11.50;4.07;;;;;;;;;;5013655;28;20026;-61
2023/04/26 00:21:08;;;;;;;10.35;3.72;;;;;;;;;;5023039;28;20038;-61
2023/04/26 00:23:35;;;;;;;11.93;4.22;;;;;;;;;;5012814;28;20037;-61
2023/04/26 00:26:01;;;;;;;7.60;3.78;;;;;;;;;;5025286;28;20061;-60
2023/04/26 00:28:28;;;;;;;8.70;3.97;;;;;;;;;;5023910;28;20065;-61
2023/04/26 00:30:56;;;;;;;9.85;4.13;;;;;;;;;;5013270;28;20034;-62
2023/04/26 00:33:25;;;;;;;9.93;4.07;;;;;;;;;;5016807;28;20034;-62
2023/04/26 00:35:50;;;;;;;13.13;4.20;;;;;;;;;;5013075;28;20487;-60
2023/04/26 00:38:16;;;;;;;11.15;4.28;;;;;;;;;;5012301;28;20128;-62
2023/04/26 00:40:41;;;;;;;15.32;4.88;;;;;;;;;;5016384;28;20131;-61
2023/04/26 00:43:07;;;;;;;10.63;4.43;;;;;;;;;;5013572;28;20038;-61
2023/04/26 00:45:33;;;;;;;8.75;4.10;;;;;;;;;;5028178;28;20503;-61
2023/04/26 00:48:01;;;;;;;11.98;5.03;;;;;;;;;;5015591;28;20113;-61
2023/04/26 00:50:27;;;;;;;8.20;4.28;;;;;;;;;;5021579;28;20038;-61
2023/04/26 00:52:54;;;;;;;8.73;4.47;;;;;;;;;;5031720;28;20041;-61
2023/04/26 00:55:21;;;;;;;12.43;4.70;;;;;;;;;;5030086;28;20045;-61
2023/04/26 00:57:47;;;;;;;10.88;4.90;;;;;;;;;;5028345;28;20033;-61
2023/04/26 01:00:13;;;;;;;9.75;4.72;;;;;;;;;;5013201;28;20466;-60
2023/04/26 01:02:40;;;;;;;12.95;5.03;;;;;;;;;;5013789;28;20041;-61
2023/04/26 01:05:05;;;;;;;15.65;4.55;;;;;;;;;;5013396;28;20495;-60
2023/04/26 01:07:32;;;;;;;12.23;4.80;;;;;;;;;;5026269;28;20033;-62
2023/04/26 01:09:58;;;;;;;12.15;4.60;;;;;;;;;;5012966;28;20026;-60
2023/04/26 01:12:25;;;;;;;11.93;4.70;;;;;;;;;;5013123;28;20487;-61
2023/04/26 01:14:51;;;;;;;9.68;4.82;;;;;;;;;;5029231;28;20041;-61
2023/04/26 01:17:17;;;;;;;12.20;4.95;;;;;;;;;;5026539;28;20036;-60
2023/04/26 01:19:46;;;;;;;10.38;4.78;;;;;;;;;;5026597;28;20029;-62
2023/04/26 01:22:12;;;;;;;13.60;5.68;;;;;;;;;;5026700;28;20053;-60
2023/04/26 01:24:38;;;;;;;11.10;5.40;;;;;;;;;;5023660;28;20022;-61
2023/04/26 01:27:04;;;;;;;11.40;5.13;;;;;;;;;;5012936;28;20037;-60
2023/04/26 01:29:30;;;;;;;14.40;5.65;;;;;;;;;;5023730;28;20049;-61
2023/04/26 01:31:56;;;;;;;14.35;4.80;;;;;;;;;;5022960;28;20087;-61
2023/04/26 01:34:21;;;;;;;10.55;4.53;;;;;;;;;;5020592;28;20423;-61
2023/04/26 01:36:46;;;;;;;12.63;4.88;;;;;;;;;;5024518;28;20069;-61
2023/04/26 01:39:12;;;;;;;11.48;4.50;;;;;;;;;;5016718;28;20361;-61
2023/04/26 01:41:37;;;;;;;9.15;4.68;;;;;;;;;;5020327;28;20040;-61
2023/04/26 01:44:03;;;;;;;11.00;4.90;;;;;;;;;;5032419;28;20033;-61
2023/04/26 01:46:28;;;;;;;10.52;4.75;;;;;;;;;;5022306;28;20087;-61
2023/04/26 01:48:54;;;;;;;11.23;4.35;;;;;;;;;;5021327;28;20041;-60
2023/04/26 01:51:20;;;;;;;12.30;4.55;;;;;;;;;;5024475;28;20033;-60
2023/04/26 01:53:46;;;;;;;9.30;3.88;;;;;;;;;;5014331;28;20082;-60
2023/04/26 01:56:11;;;;;;;10.30;4.07;;;;;;;;;;5035081;28;20108;-61
2023/04/26 01:58:36;;;;;;;9.98;4.40;;;;;;;;;;5030309;28;20442;-62
2023/04/26 02:01:07;;;;;;;11.57;4.65;;;;;;;;;;5029519;28;20033;-61
2023/04/26 02:03:32;;;;;;;8.90;4.70;;;;;;;;;;5013154;28;20088;-62
2023/04/26 02:05:57;;;;;;;12.75;4.63;;;;;;;;;;5014129;28;20042;-61
2023/04/26 02:08:23;;;;;;;10.27;4.70;;;;;;;;;;5011881;28;20033;-61
2023/04/26 02:10:48;;;;;;;11.30;4.82;;;;;;;;;;5028595;28;20183;-60
2023/04/26 02:13:14;;;;;;;13.57;4.70;;;;;;;;;;5031462;28;20071;-61
2023/04/26 02:15:40;;;;;;;11.90;4.65;;;;;;;;;;5030276;28;20029;-61
2023/04/26 02:18:06;;;;;;;8.80;4.55;;;;;;;;;;5030767;28;20392;-61
2023/04/26 02:20:31;;;;;;;10.32;4.40;;;;;;;;;;5026307;28;20159;-60
2023/04/26 02:22:57;;;;;;;10.48;4.30;;;;;;;;;;5024981;28;20029;-61
2023/04/26 02:25:23;;;;;;;10.98;5.05;;;;;;;;;;5017995;28;20038;-61
2023/04/26 02:27:49;;;;;;;11.98;4.88;;;;;;;;;;5017462;28;20096;-61
2023/04/26 02:30:14;;;;;;;12.25;5.00;;;;;;;;;;5010211;28;20168;-61
2023/04/26 02:32:40;;;;;;;14.27;4.88;;;;;;;;;;5010158;28;20033;-61
2023/04/26 02:35:05;;;;;;;12.93;5.78;;;;;;;;;;5014395;28;20145;-60
2023/04/26 02:37:33;;;;;;;10.38;4.82;;;;;;;;;;5010607;28;20076;-60
2023/04/26 02:39:58;;;;;;;8.05;4.65;;;;;;;;;;5020954;28;20112;-61
2023/04/26 02:42:24;;;;;;;11.50;4.65;;;;;;;;;;5028119;28;20120;-61
2023/04/26 02:44:49;;;;;;;11.80;5.18;;;;;;;;;;5019976;28;20044;-61
2023/04/26 02:47:15;;;;;;;13.50;5.07;;;;;;;;;;5020688;28;20120;-60
2023/04/26 02:49:41;;;;;;;11.93;4.82;;;;;;;;;;5024852;28;20526;-61
2023/04/26 02:52:06;;;;;;;11.27;5.30;;;;;;;;;;5036120;28;20036;-61
2023/04/26 02:54:31;;;;;;;13.68;4.90;;;;;;;;;;5033355;28;20030;-62
2023/04/26 02:56:57;;;;;;;10.43;4.90;;;;;;;;;;5036409;28;20537;-62
2023/04/26 02:59:23;;;;;;;19.65;5.35;;;;;;;;;;5035090;28;20026;-61
2023/04/26 03:01:48;;;;;;;13.25;4.80;;;;;;;;;;5035533;28;20383;-62
2023/04/26 03:04:16;;;;;;;12.80;5.28;;;;;;;;;;5034411;28;20434;-61
2023/04/26 03:06:41;;;;;;;12.30;5.38;;;;;;;;;;5037208;28;20033;-60
2023/04/26 03:09:06;;;;;;;12.70;4.90;;;;;;;;;;5034931;28;20368;-60
2023/04/26 03:11:32;;;;;;;11.93;4.68;;;;;;;;;;5023401;28;20038;-60
2023/04/26 03:13:57;;;;;;;11.27;4.93;;;;;;;;;;5022309;28;20021;-60
2023/04/26 03:16:23;;;;;;;11.18;5.47;;;;;;;;;;5021759;28;20040;-61
2023/04/26 03:18:49;;;;;;;10.27;4.38;;;;;;;;;;5034656;28;20041;-61
2023/04/26 03:21:14;;;;;;;14.30;5.22;;;;;;;;;;5037867;28;20021;-60
2023/04/26 03:23:40;;;;;;;11.07;5.10;;;;;;;;;;5034780;28;20036;-61
2023/04/26 03:26:05;;;;;;;12.07;4.97;;;;;;;;;;5032755;28;20376;-62
2023/04/26 03:28:31;;;;;;;10.35;4.75;;;;;;;;;;5035386;28;20086;-62
2023/04/26 03:30:56;;;;;;;9.18;4.75;;;;;;;;;;5027991;28;20033;-62
2023/04/26 03:33:21;;;;;;;19.83;5.65;;;;;;;;;;5037838;28;20032;-62
2023/04/26 03:35:47;;;;;;;11.50;5.00;;;;;;;;;;5036096;28;20033;-62
2023/04/26 03:38:12;;;;;;;18.83;5.60;;;;;;;;;;5026587;28;20500;-61
2023/04/26 03:40:38;;;;;;;14.30;5.65;;;;;;;;;;5034796;28;20048;-62
2023/04/26 03:43:03;;;;;;;13.20;6.20;;;;;;;;;;5037695;28;20049;-62
2023/04/26 03:45:30;;;;;;;17.77;8.50;;;;;;;;;;5033766;28;20550;-62
2023/04/26 03:47:55;;;;;;;24.42;11.05;;;;;;;;;;5036910;28;20044;-62
2023/04/26 03:50:21;;;;;;;26.73;13.25;;;;;;;;;;5035856;28;20068;-62
2023/04/26 03:52:46;;;;;;;34.33;17.30;;;;;;;;;;5035220;28;20056;-62
2023/04/26 03:55:12;;;;;;;33.50;17.90;;;;;;;;;;5035936;28;20034;-63
2023/04/26 03:57:37;;;;;;;37.05;18.17;;;;;;;;;;5037234;28;20439;-63
2023/04/26 04:00:11;;;;;;;34.75;18.23;;;;;;;;;;5036051;28;20033;-63
2023/04/26 04:02:37;;;;;;;44.03;20.05;;;;;;;;;;5032594;28;20124;-62
2023/04/26 04:05:03;;;;;;;45.13;21.77;;;;;;;;;;5031924;28;20500;-63
2023/04/26 04:07:28;;;;;;;41.65;21.48;;;;;;;;;;5033244;28;20036;-62
2023/04/26 04:09:53;;;;;;;39.72;21.25;;;;;;;;;;5033658;28;20577;-63
2023/04/26 04:12:19;;;;;;;36.97;20.23;;;;;;;;;;5034367;28;20041;-62
2023/04/26 04:14:44;;;;;;;34.40;20.92;;;;;;;;;;5031395;28;20072;-62
2023/04/26 04:17:10;;;;;;;40.70;21.10;;;;;;;;;;5034394;28;20057;-61
2023/04/26 04:19:36;;;;;;;41.80;22.67;;;;;;;;;;5032858;28;20033;-62
2023/04/26 04:22:01;;;;;;;37.35;22.25;;;;;;;;;;5034127;28;20037;-63
2023/04/26 04:24:27;;;;;;;40.83;21.95;;;;;;;;;;5030537;28;20033;-62
2023/04/26 04:26:53;;;;;;;42.75;20.58;;;;;;;;;;5033151;28;20384;-62
2023/04/26 04:29:18;;;;;;;40.88;20.92;;;;;;;;;;5034013;28;20029;-63
2023/04/26 04:31:44;;;;;;;35.58;19.08;;;;;;;;;;5033138;28;20044;-62
2023/04/26 04:34:09;;;;;;;44.95;21.20;;;;;;;;;;5031827;28;20033;-62
2023/04/26 04:36:35;;;;;;;37.88;19.90;;;;;;;;;;5031282;28;20046;-61
2023/04/26 04:39:01;;;;;;;35.97;19.42;;;;;;;;;;5032153;28;20048;-62
2023/04/26 04:41:26;;;;;;;43.50;21.35;;;;;;;;;;5033977;28;20052;-62
2023/04/26 04:43:52;;;;;;;36.97;18.85;;;;;;;;;;5031176;28;20475;-62
2023/04/26 04:46:17;;;;;;;31.88;16.25;;;;;;;;;;5033782;28;20079;-63
2023/04/26 04:48:43;;;;;;;32.92;17.52;;;;;;;;;;5032673;28;20029;-62
2023/04/26 04:51:08;;;;;;;40.97;19.20;;;;;;;;;;5033719;28;20448;-63
2023/04/26 04:53:34;;;;;;;36.85;18.65;;;;;;;;;;5031647;28;20052;-62
2023/04/26 04:55:59;;;;;;;33.20;17.98;;;;;;;;;;5011761;28;20037;-63
2023/04/26 04:58:25;;;;;;;44.08;19.52;;;;;;;;;;5013892;28;20106;-63
2023/04/26 05:00:52;;;;;;;42.13;18.92;;;;;;;;;;5013095;28;20026;-62
2023/04/26 05:03:18;;;;;;;35.03;17.77;;;;;;;;;;5013619;28;20029;-63
2023/04/26 05:05:43;;;;;;;35.33;18.30;;;;;;;;;;5029153;28;20388;-62
2023/04/26 05:08:09;;;;;;;36.70;17.25;;;;;;;;;;5033526;28;20112;-62
2023/04/26 05:10:35;;;;;;;35.25;17.83;;;;;;;;;;5033452;28;20059;-61
2023/04/26 05:13:00;;;;;;;45.25;17.85;;;;;;;;;;5032022;28;20018;-62
2023/04/26 05:15:26;;;;;;;40.40;18.45;;;;;;;;;;5030154;28;20040;-62
2023/04/26 05:17:51;;;;;;;37.88;17.73;;;;;;;;;;5031632;28;20436;-63
2023/04/26 05:20:16;;;;;;;39.35;19.13;;;;;;;;;;5032953;28;20030;-62
2023/04/26 05:22:42;;;;;;;37.53;17.85;;;;;;;;;;5032445;28;20087;-62
2023/04/26 05:25:09;;;;;;;31.95;15.93;;;;;;;;;;5029153;28;20034;-63
2023/04/26 05:27:36;;;;;;;28.10;13.93;;;;;;;;;;5033020;28;20029;-62
2023/04/26 05:30:03;;;;;;;24.20;11.85;;;;;;;;;;5031986;28;20488;-62
2023/04/26 05:32:29;;;;;;;32.58;12.73;;;;;;;;;;5031562;28;20034;-63
2023/04/26 05:34:54;;;;;;;30.65;12.45;;;;;;;;;;5031209;28;20479;-62
2023/04/26 05:37:20;;;;;;;24.75;9.85;;;;;;;;;;5032621;28;20049;-62
2023/04/26 05:39:45;;;;;;;27.77;10.32;;;;;;;;;;5031957;28;20111;-62
2023/04/26 05:42:10;;;;;;;23.05;10.00;;;;;;;;;;5032695;28;20033;-61
2023/04/26 05:44:36;;;;;;;24.10;10.30;;;;;;;;;;5031082;28;20045;-62
2023/04/26 05:47:01;;;;;;;26.20;11.10;;;;;;;;;;5029830;28;20072;-62
2023/04/26 05:49:26;;;;;;;22.00;10.88;;;;;;;;;;5032685;28;20431;-63
2023/04/26 05:51:52;;;;;;;26.33;11.23;;;;;;;;;;5031696;28;20040;-63
2023/04/26 05:54:17;;;;;;;22.98;10.27;;;;;;;;;;5031524;28;20383;-63
2023/04/26 05:56:42;;;;;;;28.13;10.45;;;;;;;;;;5031265;28;20076;-62
2023/04/26 05:59:08;;;;;;;24.98;10.55;;;;;;;;;;5031857;28;20056;-63
2023/04/26 06:01:33;;;;;;;22.95;10.38;;;;;;;;;;5032516;28;20032;-63
2023/04/26 06:03:59;;;;;;;26.83;10.90;;;;;;;;;;5028927;28;20060;-62
2023/04/26 06:06:27;;;;;;;25.65;10.10;;;;;;;;;;5031247;28;20026;-62
2023/04/26 06:08:52;;;;;;;27.10;10.57;;;;;;;;;;5029203;28;20037;-62
2023/04/26 06:11:18;;;;;;;28.00;10.40;;;;;;;;;;5032315;28;20036;-62
2023/04/26 06:13:43;;;;;;;22.25;9.75;;;;;;;;;;5030867;28;20033;-63
2023/04/26 06:16:09;;;;;;;29.52;10.32;;;;;;;;;;5030755;28;20407;-62
2023/04/26 06:18:34;;;;;;;24.67;9.95;;;;;;;;;;5030899;28;20025;-64
2023/04/26 06:20:59;;;;;;;20.70;9.38;;;;;;;;;;5031319;28;20033;-64
2023/04/26 06:23:25;;;;;;;26.88;10.00;;;;;;;;;;5030617;28;20090;-63
2023/04/26 06:25:50;;;;;;;25.58;10.63;;;;;;;;;;5029953;28;20041;-63
2023/04/26 06:28:16;;;;;;;30.90;10.23;;;;;;;;;;5030011;28;20034;-63
2023/04/26 06:30:41;;;;;;;28.75;10.40;;;;;;;;;;5031671;28;20033;-63
2023/04/26 06:33:07;;;;;;;24.88;11.02;;;;;;;;;;5028717;28;20112;-63
2023/04/26 06:35:38;;;;;;;22.60;10.48;;;;;;;;;;5030129;28;20036;-65
2023/04/26 06:38:04;;;;;;;23.23;10.10;;;;;;;;;;5030655;28;20244;-64
2023/04/26 06:40:30;;;;;;;22.88;9.75;;;;;;;;;;5031836;28;20091;-63
2023/04/26 06:42:56;;;;;;;21.02;9.88;;;;;;;;;;5028100;28;20033;-64
2023/04/26 06:45:21;;;;;;;23.13;10.25;;;;;;;;;;5031770;28;20076;-63
2023/04/26 06:47:47;;;;;;;20.40;10.27;;;;;;;;;;5030615;28;20060;-63
2023/04/26 06:50:12;;;;;;;21.73;9.88;;;;;;;;;;5031507;28;20036;-65
2023/04/26 06:52:37;;;;;;;20.88;9.45;;;;;;;;;;5029901;28;20365;-64
2023/04/26 06:55:03;;;;;;;21.52;9.30;;;;;;;;;;5028301;28;20036;-63
2023/04/26 06:57:29;;;;;;;23.55;9.25;;;;;;;;;;5030492;28;20072;-64
2023/04/26 06:59:54;;;;;;;24.38;10.07;;;;;;;;;;5030802;28;20029;-64
2023/04/26 07:02:21;;;;;;;21.40;8.63;;;;;;;;;;5030161;28;20025;-62
2023/04/26 07:04:47;;;;;;;18.85;8.52;;;;;;;;;;5011428;28;20030;-62
2023/04/26 07:07:13;;;;;;;19.30;8.70;;;;;;;;;;5025326;28;20025;-62
2023/04/26 07:09:38;;;;;;;17.10;7.32;;;;;;;;;;5031882;28;20026;-62
2023/04/26 07:12:04;;;;;;;19.17;6.68;;;;;;;;;;5030492;28;20406;-63
2023/04/26 07:14:29;;;;;;;15.40;6.07;;;;;;;;;;5030089;28;20061;-61
2023/04/26 07:16:55;;;;;;;14.73;6.18;;;;;;;;;;5030551;28;20436;-63
2023/04/26 07:19:20;;;;;;;13.13;5.80;;;;;;;;;;5031390;28;20115;-62
2023/04/26 07:21:46;;;;;;;13.07;6.22;;;;;;;;;;5031257;28;20037;-63
2023/04/26 07:24:12;;;;;;;15.00;6.50;;;;;;;;;;5028867;28;20116;-63
2023/04/26 07:26:37;;;;;;;14.45;5.50;;;;;;;;;;5029565;28;20041;-64
2023/04/26 07:29:03;;;;;;;14.40;6.15;;;;;;;;;;5030439;28;20030;-63
2023/04/26 07:31:30;;;;;;;15.15;6.90;;;;;;;;;;5031308;28;20053;-63
2023/04/26 07:33:56;;;;;;;10.80;3.70;;;;;;;;;;5028470;28;20029;-63
2023/04/26 07:36:21;;;;;;;5.97;2.60;;;;;;;;;;5033339;28;20107;-64
2023/04/26 07:38:47;;;;;;;6.45;2.10;;;;;;;;;;5035083;28;20025;-62
2023/04/26 07:41:12;;;;;;;8.30;2.50;;;;;;;;;;5034432;28;20468;-62
2023/04/26 07:43:38;;;;;;;5.85;2.60;;;;;;;;;;5031336;28;20037;-63
2023/04/26 07:46:03;;;;;;;8.43;2.60;;;;;;;;;;5033875;28;20080;-61
2023/04/26 07:48:29;;;;;;;8.68;2.58;;;;;;;;;;5034959;28;20038;-63
2023/04/26 07:50:54;;;;;;;6.32;2.35;;;;;;;;;;5033739;28;20044;-62
2023/04/26 07:53:20;;;;;;;10.27;2.42;;;;;;;;;;5031651;28;20033;-61
2023/04/26 07:55:46;;;;;;;6.20;2.78;;;;;;;;;;5032640;28;20034;-63
2023/04/26 07:58:13;;;;;;;7.25;2.47;;;;;;;;;;5033969;28;20217;-62
2023/04/26 08:00:39;;;;;;;6.70;2.33;;;;;;;;;;5032548;28;20419;-62
2023/04/26 08:03:05;;;;;;;8.93;2.30;;;;;;;;;;5033788;28;20040;-63
2023/04/26 08:05:30;;;;;;;7.57;2.00;;;;;;;;;;5034340;28;20030;-62
2023/04/26 08:07:56;;;;;;;7.60;2.20;;;;;;;;;;5033734;28;20029;-62
2023/04/26 08:10:21;;;;;;;7.95;2.17;;;;;;;;;;5033058;28;20036;-65
2023/04/26 08:12:46;;;;;;;7.30;2.15;;;;;;;;;;5032334;28;20460;-63
2023/04/26 08:15:12;;;;;;;11.60;2.28;;;;;;;;;;5033437;28;20843;-62
2023/04/26 08:17:37;;;;;;;3.08;1.60;;;;;;;;;;5034312;28;20029;-63
2023/04/26 08:20:08;;;;;;;7.18;1.80;;;;;;;;;;5031816;28;20515;-63
2023/04/26 08:22:33;;;;;;;7.20;2.28;;;;;;;;;;5034301;28;20026;-63
2023/04/26 08:24:59;;;;;;;9.13;2.40;;;;;;;;;;5033234;28;20127;-62
2023/04/26 08:27:24;;;;;;;5.80;1.80;;;;;;;;;;5033967;28;20052;-63
2023/04/26 08:29:50;;;;;;;8.07;2.15;;;;;;;;;;5033890;28;20072;-63
2023/04/26 08:32:15;;;;;;;5.82;1.98;;;;;;;;;;5012739;28;20045;-63
2023/04/26 08:34:41;;;;;;;4.53;1.90;;;;;;;;;;5014049;28;20419;-62
2023/04/26 08:37:06;;;;;;;2.80;1.48;;;;;;;;;;5013076;28;20054;-62
2023/04/26 08:39:32;;;;;;;6.88;2.22;;;;;;;;;;5014060;28;20504;-64
2023/04/26 08:42:11;;;;;;;4.93;2.28;;;;;;;;;;5027471;28;20503;-62
2023/04/26 08:44:40;;;;;;;4.57;2.20;;;;;;;;;;5033863;28;20029;-62
2023/04/26 08:47:27;;;;;;;9.40;2.45;;;;;;;;;;5032286;28;20044;-62
2023/04/26 08:50:01;;;;;;;5.28;1.95;;;;;;;;;;5033151;28;20120;-63
2023/04/26 08:52:29;;;;;;;10.50;2.80;;;;;;;;;;5029845;28;20033;-63
2023/04/26 08:54:56;;;;;;;7.00;2.60;;;;;;;;;;5033585;28;20075;-61
2023/04/26 08:57:23;;;;;;;7.85;2.55;;;;;;;;;;5016119;28;20057;-62
2023/04/26 08:59:48;;;;;;;6.60;2.30;;;;;;;;;;5033958;28;20087;-61
2023/04/26 09:02:17;;;;;;;7.85;2.55;;;;;;;;;;5030456;28;20041;-61
2023/04/26 09:04:47;;;;;;;4.68;2.30;;;;;;;;;;5033406;28;20447;-62
2023/04/26 09:07:38;;;;;;;9.27;2.42;;;;;;;;;;5032886;28;20232;-62
2023/04/26 09:10:05;;;;;;;4.72;2.42;;;;;;;;;;5031509;28;20547;-61
2023/04/26 09:12:30;;;;;;;6.38;2.50;;;;;;;;;;5016861;28;20035;-62
2023/04/26 09:14:56;;;;;;;7.70;2.70;;;;;;;;;;5031155;28;20120;-61
2023/04/26 09:17:33;;;;;;;5.47;2.33;;;;;;;;;;5032914;28;20029;-61
2023/04/26 09:20:00;;;;;;;6.38;3.05;;;;;;;;;;5032304;28;20113;-61
2023/04/26 09:22:30;;;;;;;8.85;2.42;;;;;;;;;;5030637;28;20037;-61
2023/04/26 09:24:56;;;;;;;8.77;2.70;;;;;;;;;;5031527;28;20124;-62
2023/04/26 09:27:34;;;;;;;9.10;2.50;;;;;;;;;;5031355;28;20132;-62
2023/04/26 09:30:14;;;;;;;8.63;2.40;;;;;;;;;;5032235;28;20376;-61
2023/04/26 09:32:47;;;;;;;4.82;2.10;;;;;;;;;;5028706;28;20064;-62
2023/04/26 09:35:32;;;;;;;4.75;2.10;;;;;;;;;;5031973;28;20025;-61
2023/04/26 09:37:58;;;;;;;6.75;2.20;;;;;;;;;;5031979;28;20136;-62
2023/04/26 09:40:25;;;;;;;5.63;1.88;;;;;;;;;;5031300;28;20033;-62
2023/04/26 09:43:02;;;;;;;8.43;2.28;;;;;;;;;;5031890;28;20037;-62
2023/04/26 09:45:29;;;;;;;7.72;2.28;;;;;;;;;;5032635;28;20099;-61
2023/04/26 09:48:11;;;;;;;5.40;2.20;;;;;;;;;;5032535;28;20029;-61
2023/04/26 09:50:36;;;;;;;5.22;2.13;;;;;;;;;;5030235;28;20047;-62
2023/04/26 09:53:01;;;;;;;5.68;2.30;;;;;;;;;;5029731;28;20464;-61
2023/04/26 09:55:28;;;;;;;3.70;2.20;;;;;;;;;;5031542;28;20043;-62
2023/04/26 09:57:59;;;;;;;6.40;1.92;;;;;;;;;;5031786;28;20065;-61
2023/04/26 10:00:26;;;;;;;5.03;1.65;;;;;;;;;;5029566;28;20112;-62
2023/04/26 10:02:53;;;;;;;3.53;1.60;;;;;;;;;;5032071;28;20048;-61
2023/04/26 10:05:19;;;;;;;4.32;1.95;;;;;;;;;;5029767;28;20116;-61
2023/04/26 10:07:45;;;;;;;5.45;1.80;;;;;;;;;;5032295;28;20030;-61
2023/04/26 10:10:11;;;;;;;5.10;1.95;;;;;;;;;;5031187;28;20037;-61
2023/04/26 10:12:37;;;;;;;4.18;1.70;;;;;;;;;;5032053;28;20029;-62
2023/04/26 10:15:03;;;;;;;4.45;2.15;;;;;;;;;;5030134;28;20049;-61
2023/04/26 10:17:28;;;;;;;7.93;2.38;;;;;;;;;;5028912;28;20546;-61
2023/04/26 10:19:57;;;;;;;8.18;2.40;;;;;;;;;;5032057;28;20029;-61
2023/04/26 10:22:26;;;;;;;5.72;2.58;;;;;;;;;;5031778;28;20044;-62
2023/04/26 10:24:53;;;;;;;3.33;2.03;;;;;;;;;;5032371;28;20357;-61
2023/04/26 10:27:46;;;;;;;3.45;2.13;;;;;;;;;;5029973;28;20060;-61
2023/04/26 10:30:12;;;;;;;5.68;2.30;;;;;;;;;;5031139;28;20105;-61
2023/04/26 10:32:56;;;;;;;5.75;2.13;;;;;;;;;;5030650;28;20080;-61
2023/04/26 10:35:23;;;;;;;5.93;2.70;;;;;;;;;;5031127;28;20100;-62
2023/04/26 10:37:58;;;;;;;7.90;2.60;;;;;;;;;;5028169;28;20081;-62
2023/04/26 10:40:27;;;;;;;8.48;3.50;;;;;;;;;;5031020;28;20108;-62
2023/04/26 10:43:11;;;;;;;5.53;2.80;;;;;;;;;;5031685;28;20047;-62
2023/04/26 10:45:38;;;;;;;6.07;3.00;;;;;;;;;;5031819;28;20472;-61
2023/04/26 10:48:18;;;;;;;5.25;2.67;;;;;;;;;;5029404;28;20080;-61
2023/04/26 10:51:07;;;;;;;7.40;2.75;;;;;;;;;;5012095;28;20038;-62
2023/04/26 10:53:38;;;;;;;4.95;2.38;;;;;;;;;;5012082;28;20042;-62
2023/04/26 10:56:04;;;;;;;6.30;2.80;;;;;;;;;;5010841;28;20060;-63
2023/04/26 10:58:33;;;;;;;6.03;2.53;;;;;;;;;;5028306;28;20061;-63
2023/04/26 11:01:19;;;;;;;6.47;2.63;;;;;;;;;;5031750;28;20029;-63
2023/04/26 11:03:56;;;;;;;5.95;2.72;;;;;;;;;;5031323;28;20056;-61
2023/04/26 11:06:23;;;;;;;6.10;2.85;;;;;;;;;;5029683;28;20112;-63
2023/04/26 11:08:49;;;;;;;4.70;2.67;;;;;;;;;;5028414;28;20037;-62
2023/04/26 11:11:16;;;;;;;5.57;2.30;;;;;;;;;;5032591;28;20033;-62
2023/04/26 11:13:42;;;;;;;7.40;2.55;;;;;;;;;;5035576;28;20025;-62
2023/04/26 11:16:15;;;;;;;4.97;2.70;;;;;;;;;;5031924;28;20391;-63
2023/04/26 11:18:46;;;;;;;3.65;2.10;;;;;;;;;;5014523;28;20030;-62
2023/04/26 11:21:16;;;;;;;4.70;2.40;;;;;;;;;;5015036;28;20030;-62
2023/04/26 11:23:42;;;;;;;8.02;2.58;;;;;;;;;;5015416;28;20250;-63
2023/04/26 11:26:08;;;;;;;5.00;2.55;;;;;;;;;;5016885;28;20485;-63
2023/04/26 11:28:35;;;;;;;6.40;2.88;;;;;;;;;;5034413;28;20029;-64
2023/04/26 11:31:05;;;;;;;5.00;2.42;;;;;;;;;;5034510;28;20029;-63
2023/04/26 11:33:33;;;;;;;7.10;2.80;;;;;;;;;;5035297;28;20117;-63
2023/04/26 11:35:58;;;;;;;7.05;2.80;;;;;;;;;;5033638;28;20488;-62
2023/04/26 11:38:26;;;;;;;7.43;2.75;;;;;;;;;;5033617;28;20103;-62
2023/04/26 11:40:59;;;;;;;3.85;2.53;;;;;;;;;;5035147;28;20033;-62
2023/04/26 11:43:35;;;;;;;7.25;2.90;;;;;;;;;;5032626;28;20817;-62
2023/04/26 11:46:02;;;;;;;5.90;2.90;;;;;;;;;;5032329;28;20073;-62
2023/04/26 11:48:29;;;;;;;8.23;2.67;;;;;;;;;;5034082;28;20034;-62
2023/04/26 11:50:58;;;;;;;9.90;2.85;;;;;;;;;;5034883;28;20036;-63
2023/04/26 11:53:24;;;;;;;4.97;2.47;;;;;;;;;;5032456;28;20070;-62
2023/04/26 11:55:50;;;;;;;5.10;2.35;;;;;;;;;;5034448;28;20424;-62
2023/04/26 11:58:16;;;;;;;6.22;2.20;;;;;;;;;;5031009;28;20026;-62
2023/04/26 12:01:03;;;;;;;5.93;2.15;;;;;;;;;;5034970;28;20379;-63
2023/04/26 12:03:33;;;;;;;6.55;2.30;;;;;;;;;;5034139;28;20080;-62
2023/04/26 12:05:59;;;;;;;4.93;2.30;;;;;;;;;;5033236;28;20428;-62
2023/04/26 12:08:26;;;;;;;7.78;2.20;;;;;;;;;;5027339;28;20135;-62
2023/04/26 12:10:52;;;;;;;4.07;2.65;;;;;;;;;;5014877;28;20111;-63
2023/04/26 12:13:19;;;;;;;4.50;2.28;;;;;;;;;;5012629;28;20192;-62
2023/04/26 12:15:45;;;;;;;4.53;2.20;;;;;;;;;;5014466;28;20022;-61
2023/04/26 12:18:11;;;;;;;8.05;2.60;;;;;;;;;;5028732;28;20117;-62
2023/04/26 12:20:39;;;;;;;4.22;2.10;;;;;;;;;;5034351;28;20380;-62
2023/04/26 12:23:15;;;;;;;5.13;1.92;;;;;;;;;;5032961;28;20044;-62
2023/04/26 12:25:50;;;;;;;7.65;2.38;;;;;;;;;;5034463;28;20037;-63
2023/04/26 12:28:15;;;;;;;7.53;2.60;;;;;;;;;;5031293;28;20041;-62
2023/04/26 12:30:41;;;;;;;3.60;2.03;;;;;;;;;;5031760;28;20033;-62
2023/04/26 12:33:06;;;;;;;4.90;2.33;;;;;;;;;;5033552;28;20076;-62
2023/04/26 12:35:33;;;;;;;5.45;2.55;;;;;;;;;;5033654;28;20063;-63
2023/04/26 12:38:00;;;;;;;5.72;2.28;;;;;;;;;;5032902;28;20049;-62
2023/04/26 12:40:26;;;;;;;4.18;2.08;;;;;;;;;;5031076;28;20369;-62
2023/04/26 12:42:54;;;;;;;7.80;2.40;;;;;;;;;;5033030;28;20337;-62
2023/04/26 12:45:21;;;;;;;4.70;2.40;;;;;;;;;;5033124;28;20086;-62
2023/04/26 12:47:46;;;;;;;6.05;2.55;;;;;;;;;;5030227;28;20045;-62
2023/04/26 12:50:13;;;;;;;7.85;2.70;;;;;;;;;;5032199;28;20388;-63
2023/04/26 12:52:39;;;;;;;5.00;2.00;;;;;;;;;;5033818;28;20092;-61
2023/04/26 12:55:07;;;;;;;5.55;2.20;;;;;;;;;;5033666;28;20025;-63
2023/04/26 12:57:33;;;;;;;5.63;2.70;;;;;;;;;;5031801;28;20029;-62
2023/04/26 12:59:58;;;;;;;4.47;2.30;;;;;;;;;;5033615;28;20383;-62
2023/04/26 13:02:24;;;;;;;4.25;2.40;;;;;;;;;;5030681;28;20029;-62
2023/04/26 13:04:49;;;;;;;6.20;2.70;;;;;;;;;;5032176;28;20349;-61
2023/04/26 13:07:15;;;;;;;8.32;2.30;;;;;;;;;;5031607;28;20033;-61
2023/04/26 13:09:40;;;;;;;6.10;2.45;;;;;;;;;;5033366;28;20025;-61
2023/04/26 13:12:06;;;;;;;8.48;2.90;;;;;;;;;;5033360;28;20035;-62
2023/04/26 13:14:31;;;;;;;4.97;2.40;;;;;;;;;;5032516;28;20025;-62
2023/04/26 13:16:57;;;;;;;6.55;2.58;;;;;;;;;;5025836;28;20029;-61
2023/04/26 13:19:22;;;;;;;6.03;2.30;;;;;;;;;;5024501;28;20044;-61
2023/04/26 13:21:48;;;;;;;4.03;2.28;;;;;;;;;;5033226;28;20025;-62
2023/04/26 13:24:13;;;;;;;8.27;2.88;;;;;;;;;;5032457;28;20033;-61
2023/04/26 13:26:38;;;;;;;6.20;2.50;;;;;;;;;;5033125;28;20384;-62
2023/04/26 13:29:04;;;;;;;5.22;2.38;;;;;;;;;;5030579;28;20112;-62
2023/04/26 13:31:29;;;;;;;4.50;2.20;;;;;;;;;;5032173;28;20026;-62
2023/04/26 13:33:55;;;;;;;3.90;2.38;;;;;;;;;;5032690;28;20029;-62
2023/04/26 13:36:20;;;;;;;8.00;2.55;;;;;;;;;;5031605;28;20026;-62
2023/04/26 13:38:46;;;;;;;6.40;2.47;;;;;;;;;;5031562;28;20468;-61
2023/04/26 13:41:11;;;;;;;4.63;2.10;;;;;;;;;;5028096;28;20037;-61
2023/04/26 13:43:37;;;;;;;8.70;2.50;;;;;;;;;;5032454;28;20030;-61
2023/04/26 13:46:03;;;;;;;5.35;2.40;;;;;;;;;;5032602;28;20037;-63
2023/04/26 13:48:28;;;;;;;6.28;2.60;;;;;;;;;;5028606;28;20128;-61
2023/04/26 13:50:55;;;;;;;3.88;2.38;;;;;;;;;;5031928;28;20112;-61
2023/04/26 13:53:20;;;;;;;5.95;2.40;;;;;;;;;;5031708;28;20029;-61
2023/04/26 13:55:46;;;;;;;5.30;2.45;;;;;;;;;;5032510;28;20033;-61
2023/04/26 13:58:12;;;;;;;7.25;2.42;;;;;;;;;;5030042;28;20053;-62
2023/04/26 14:00:37;;;;;;;6.93;2.70;;;;;;;;;;5029672;28;20111;-61
2023/04/26 14:03:03;;;;;;;6.15;2.55;;;;;;;;;;5031673;28;20091;-61
2023/04/26 14:05:28;;;;;;;4.50;2.38;;;;;;;;;;5028719;28;20038;-62
2023/04/26 14:07:54;;;;;;;7.20;2.88;;;;;;;;;;5024731;28;20120;-62
2023/04/26 14:10:19;;;;;;;9.18;3.00;;;;;;;;;;5011736;28;20461;-62
2023/04/26 14:12:45;;;;;;;5.13;2.70;;;;;;;;;;5012749;28;20025;-62
2023/04/26 14:15:11;;;;;;;7.30;2.70;;;;;;;;;;5012161;28;20461;-61
2023/04/26 14:17:36;;;;;;;5.72;2.95;;;;;;;;;;5031309;28;20033;-62
2023/04/26 14:20:02;;;;;;;5.78;2.88;;;;;;;;;;5031982;28;20083;-62
2023/04/26 14:22:28;;;;;;;5.43;2.80;;;;;;;;;;5031086;28;20036;-61
2023/04/26 14:24:53;;;;;;;5.55;2.92;;;;;;;;;;5032181;28;20040;-61
2023/04/26 14:27:19;;;;;;;6.97;2.90;;;;;;;;;;5027971;28;20544;-61
2023/04/26 14:29:44;;;;;;;6.25;2.80;;;;;;;;;;5031865;28;20044;-61
2023/04/26 14:32:10;;;;;;;5.63;2.80;;;;;;;;;;5030943;28;20033;-62